sensor_id;sensor_type;location;lat;lon;timestamp;P1;durP1;ratioP1;P2;durP2;ratioP2
15679;SDS011;15488;48.114;11.532;2023-04-25T00:01:15;1.70;;;1.50;;
15679;SDS011;15488;48.114;11.532;2023-04-25T00:03:43;1.37;;;1.17;;
15679;SDS011;15488;48.114;11.532;2023-04-25T00:06:13;1.67;;;1.40;;
15679;SDS011;15488;48.114;11.532;2023-04-25T00:08:41;1.67;;;1.33;;
15679;SDS011;15488;48.114;11.532;2023-04-25T00:11:08;1.50;;;1.40;;
15679;SDS011;15488;48.114;11.532;2023-04-25T00:13:36;1.43;;;1.33;;
15679;SDS011;15488;48.114;11.532;2023-04-25T00:16:06;2.00;;;1.47;;
15679;SDS011;15488;48.114;11.532;2023-04-25T00:18:34;1.50;;;1.30;;
15679;SDS011;15488;48.114;11.532;2023-04-25T00:21:01;2.00;;;1.67;;
15679;SDS011;15488;48.114;11.532;2023-04-25T00:23:32;1.50;;;1.27;;
15679;SDS011;15488;48.114;11.532;2023-04-25T00:26:01;1.50;;;1.40;;
15679;SDS011;15488;48.114;11.532;2023-04-25T00:28:29;1.33;;;1.10;;
15679;SDS011;15488;48.114;11.532;2023-04-25T00:30:56;1.60;;;1.20;;
15679;SDS011;15488;48.114;11.532;2023-04-25T00:33:24;1.93;;;1.33;;
15679;SDS011;15488;48.114;11.532;2023-04-25T00:35:51;1.30;;;1.20;;
15679;SDS011;15488;48.114;11.532;2023-04-25T00:38:19;1.70;;;1.60;;
15679;SDS011;15488;48.114;11.532;2023-04-25T00:40:48;1.57;;;1.33;;
15679;SDS011;15488;48.114;11.532;2023-04-25T00:43:15;1.30;;;1.20;;
15679;SDS011;15488;48.114;11.532;2023-04-25T00:45:42;1.43;;;1.33;;
15679;SDS011;15488;48.114;11.532;2023-04-25T00:48:13;2.83;;;1.47;;
15679;SDS011;15488;48.114;11.532;2023-04-25T00:50:41;1.50;;;1.27;;
15679;SDS011;15488;48.114;11.532;2023-04-25T00:53:10;2.97;;;1.30;;
15679;SDS011;15488;48.114;11.532;2023-04-25T00:55:37;2.57;;;2.07;;
15679;SDS011;15488;48.114;11.532;2023-04-25T00:58:06;2.40;;;1.50;;
15679;SDS011;15488;48.114;11.532;2023-04-25T01:00:34;1.70;;;1.20;;
15679;SDS011;15488;48.114;11.532;2023-04-25T01:03:01;2.33;;;1.53;;
15679;SDS011;15488;48.114;11.532;2023-04-25T01:05:29;1.40;;;1.30;;
15679;SDS011;15488;48.114;11.532;2023-04-25T01:07:57;3.27;;;1.50;;
15679;SDS011;15488;48.114;11.532;2023-04-25T01:10:25;2.00;;;1.50;;
15679;SDS011;15488;48.114;11.532;2023-04-25T01:12:53;1.70;;;1.60;;
15679;SDS011;15488;48.114;11.532;2023-04-25T01:15:22;1.90;;;1.10;;
15679;SDS011;15488;48.114;11.532;2023-04-25T01:17:49;1.40;;;1.30;;
15679;SDS011;15488;48.114;11.532;2023-04-25T01:20:18;1.97;;;1.30;;
15679;SDS011;15488;48.114;11.532;2023-04-25T01:22:49;2.80;;;1.47;;
15679;SDS011;15488;48.114;11.532;2023-04-25T01:25:18;2.00;;;1.60;;
15679;SDS011;15488;48.114;11.532;2023-04-25T01:27:48;1.50;;;1.40;;
15679;SDS011;15488;48.114;11.532;2023-04-25T01:30:15;1.90;;;1.30;;
15679;SDS011;15488;48.114;11.532;2023-04-25T01:32:43;1.40;;;1.20;;
15679;SDS011;15488;48.114;11.532;2023-04-25T01:35:11;2.07;;;1.30;;
15679;SDS011;15488;48.114;11.532;2023-04-25T01:37:39;1.43;;;1.30;;
15679;SDS011;15488;48.114;11.532;2023-04-25T01:40:09;1.90;;;1.37;;
15679;SDS011;15488;48.114;11.532;2023-04-25T01:42:38;1.57;;;1.30;;
15679;SDS011;15488;48.114;11.532;2023-04-25T01:45:06;2.63;;;1.50;;
15679;SDS011;15488;48.114;11.532;2023-04-25T01:47:35;2.00;;;1.50;;
15679;SDS011;15488;48.114;11.532;2023-04-25T01:50:05;1.50;;;1.40;;
15679;SDS011;15488;48.114;11.532;2023-04-25T01:52:33;1.57;;;1.33;;
15679;SDS011;15488;48.114;11.532;2023-04-25T01:55:01;1.70;;;1.40;;
15679;SDS011;15488;48.114;11.532;2023-04-25T01:57:30;6.10;;;2.00;;
15679;SDS011;15488;48.114;11.532;2023-04-25T01:59:58;1.33;;;1.23;;
15679;SDS011;15488;48.114;11.532;2023-04-25T02:02:27;1.60;;;1.50;;
15679;SDS011;15488;48.114;11.532;2023-04-25T02:04:55;2.20;;;1.37;;
15679;SDS011;15488;48.114;11.532;2023-04-25T02:07:22;2.50;;;1.53;;
15679;SDS011;15488;48.114;11.532;2023-04-25T02:09:50;2.20;;;1.37;;
15679;SDS011;15488;48.114;11.532;2023-04-25T02:12:17;2.40;;;1.50;;
15679;SDS011;15488;48.114;11.532;2023-04-25T02:14:46;2.43;;;1.63;;
15679;SDS011;15488;48.114;11.532;2023-04-25T02:17:13;2.70;;;1.40;;
15679;SDS011;15488;48.114;11.532;2023-04-25T02:19:41;1.57;;;1.47;;
15679;SDS011;15488;48.114;11.532;2023-04-25T02:22:08;1.83;;;1.57;;
15679;SDS011;15488;48.114;11.532;2023-04-25T02:24:36;1.90;;;1.60;;
15679;SDS011;15488;48.114;11.532;2023-04-25T02:27:03;1.97;;;1.40;;
15679;SDS011;15488;48.114;11.532;2023-04-25T02:29:31;3.47;;;1.70;;
15679;SDS011;15488;48.114;11.532;2023-04-25T02:32:00;1.67;;;1.47;;
15679;SDS011;15488;48.114;11.532;2023-04-25T02:34:27;1.80;;;1.50;;
15679;SDS011;15488;48.114;11.532;2023-04-25T02:36:55;1.63;;;1.50;;
15679;SDS011;15488;48.114;11.532;2023-04-25T02:39:22;1.60;;;1.50;;
15679;SDS011;15488;48.114;11.532;2023-04-25T02:41:50;1.73;;;1.60;;
15679;SDS011;15488;48.114;11.532;2023-04-25T02:44:17;1.63;;;1.30;;
15679;SDS011;15488;48.114;11.532;2023-04-25T02:46:45;1.50;;;1.40;;
15679;SDS011;15488;48.114;11.532;2023-04-25T02:49:14;1.70;;;1.57;;
15679;SDS011;15488;48.114;11.532;2023-04-25T02:51:41;2.50;;;1.73;;
15679;SDS011;15488;48.114;11.532;2023-04-25T02:54:08;2.13;;;1.60;;
15679;SDS011;15488;48.114;11.532;2023-04-25T02:56:36;1.97;;;1.47;;
15679;SDS011;15488;48.114;11.532;2023-04-25T02:59:03;2.40;;;1.70;;
15679;SDS011;15488;48.114;11.532;2023-04-25T03:01:31;3.40;;;1.80;;
15679;SDS011;15488;48.114;11.532;2023-04-25T03:03:58;2.27;;;1.60;;
15679;SDS011;15488;48.114;11.532;2023-04-25T03:06:27;3.40;;;1.70;;
15679;SDS011;15488;48.114;11.532;2023-04-25T03:08:54;2.10;;;1.67;;
15679;SDS011;15488;48.114;11.532;2023-04-25T03:11:22;1.87;;;1.60;;
15679;SDS011;15488;48.114;11.532;2023-04-25T03:13:51;2.70;;;1.60;;
15679;SDS011;15488;48.114;11.532;2023-04-25T03:16:18;1.60;;;1.50;;
15679;SDS011;15488;48.114;11.532;2023-04-25T03:18:45;2.07;;;1.60;;
15679;SDS011;15488;48.114;11.532;2023-04-25T03:21:14;2.23;;;1.67;;
15679;SDS011;15488;48.114;11.532;2023-04-25T03:23:43;2.40;;;1.63;;
15679;SDS011;15488;48.114;11.532;2023-04-25T03:26:11;2.27;;;1.50;;
15679;SDS011;15488;48.114;11.532;2023-04-25T03:28:38;2.37;;;1.67;;
15679;SDS011;15488;48.114;11.532;2023-04-25T03:31:05;1.50;;;1.40;;
15679;SDS011;15488;48.114;11.532;2023-04-25T03:33:33;2.70;;;1.60;;
15679;SDS011;15488;48.114;11.532;2023-04-25T03:36:00;1.77;;;1.50;;
15679;SDS011;15488;48.114;11.532;2023-04-25T03:38:28;2.33;;;2.03;;
15679;SDS011;15488;48.114;11.532;2023-04-25T03:40:57;3.30;;;1.43;;
15679;SDS011;15488;48.114;11.532;2023-04-25T03:43:24;2.97;;;1.40;;
15679;SDS011;15488;48.114;11.532;2023-04-25T03:45:52;2.87;;;1.40;;
15679;SDS011;15488;48.114;11.532;2023-04-25T03:48:19;1.60;;;1.30;;
15679;SDS011;15488;48.114;11.532;2023-04-25T03:50:49;1.40;;;1.30;;
15679;SDS011;15488;48.114;11.532;2023-04-25T03:53:17;1.80;;;1.23;;
15679;SDS011;15488;48.114;11.532;2023-04-25T03:55:44;1.90;;;1.30;;
15679;SDS011;15488;48.114;11.532;2023-04-25T03:58:13;2.27;;;1.13;;
15679;SDS011;15488;48.114;11.532;2023-04-25T04:00:40;2.33;;;1.50;;
15679;SDS011;15488;48.114;11.532;2023-04-25T04:03:08;1.50;;;1.20;;
15679;SDS011;15488;48.114;11.532;2023-04-25T04:05:36;1.17;;;1.07;;
15679;SDS011;15488;48.114;11.532;2023-04-25T04:08:05;2.60;;;1.10;;
15679;SDS011;15488;48.114;11.532;2023-04-25T04:10:33;2.03;;;0.90;;
15679;SDS011;15488;48.114;11.532;2023-04-25T04:13:00;1.00;;;0.90;;
15679;SDS011;15488;48.114;11.532;2023-04-25T04:15:29;1.10;;;0.90;;
15679;SDS011;15488;48.114;11.532;2023-04-25T04:17:58;1.20;;;0.90;;
15679;SDS011;15488;48.114;11.532;2023-04-25T04:20:28;1.37;;;1.10;;
15679;SDS011;15488;48.114;11.532;2023-04-25T04:22:56;1.37;;;1.20;;
15679;SDS011;15488;48.114;11.532;2023-04-25T04:25:23;1.17;;;1.07;;
15679;SDS011;15488;48.114;11.532;2023-04-25T04:27:51;1.60;;;0.97;;
15679;SDS011;15488;48.114;11.532;2023-04-25T04:30:20;1.23;;;1.00;;
15679;SDS011;15488;48.114;11.532;2023-04-25T04:32:50;2.53;;;1.20;;
15679;SDS011;15488;48.114;11.532;2023-04-25T04:35:17;1.97;;;1.17;;
15679;SDS011;15488;48.114;11.532;2023-04-25T04:37:45;2.20;;;1.10;;
15679;SDS011;15488;48.114;11.532;2023-04-25T04:40:13;1.70;;;1.30;;
15679;SDS011;15488;48.114;11.532;2023-04-25T04:42:41;1.33;;;1.20;;
15679;SDS011;15488;48.114;11.532;2023-04-25T04:45:10;1.13;;;1.03;;
15679;SDS011;15488;48.114;11.532;2023-04-25T04:47:38;2.17;;;1.30;;
15679;SDS011;15488;48.114;11.532;2023-04-25T04:50:07;1.57;;;1.10;;
15679;SDS011;15488;48.114;11.532;2023-04-25T04:52:36;1.13;;;1.00;;
15679;SDS011;15488;48.114;11.532;2023-04-25T04:55:04;1.00;;;0.90;;
15679;SDS011;15488;48.114;11.532;2023-04-25T04:57:34;2.10;;;0.97;;
15679;SDS011;15488;48.114;11.532;2023-04-25T05:00:04;1.70;;;1.00;;
15679;SDS011;15488;48.114;11.532;2023-04-25T05:02:35;1.13;;;0.93;;
15679;SDS011;15488;48.114;11.532;2023-04-25T05:05:03;2.00;;;1.20;;
15679;SDS011;15488;48.114;11.532;2023-04-25T05:07:32;1.70;;;1.00;;
15679;SDS011;15488;48.114;11.532;2023-04-25T05:10:00;3.80;;;1.67;;
15679;SDS011;15488;48.114;11.532;2023-04-25T05:12:27;1.43;;;1.00;;
15679;SDS011;15488;48.114;11.532;2023-04-25T05:14:55;2.43;;;1.20;;
15679;SDS011;15488;48.114;11.532;2023-04-25T05:17:22;2.33;;;1.17;;
15679;SDS011;15488;48.114;11.532;2023-04-25T05:19:50;2.37;;;1.00;;
15679;SDS011;15488;48.114;11.532;2023-04-25T05:22:17;1.87;;;1.20;;
15679;SDS011;15488;48.114;11.532;2023-04-25T05:24:46;2.17;;;1.40;;
15679;SDS011;15488;48.114;11.532;2023-04-25T05:27:16;2.10;;;1.40;;
15679;SDS011;15488;48.114;11.532;2023-04-25T05:29:43;1.63;;;1.40;;
15679;SDS011;15488;48.114;11.532;2023-04-25T05:32:11;1.47;;;1.23;;
15679;SDS011;15488;48.114;11.532;2023-04-25T05:34:38;1.93;;;1.27;;
15679;SDS011;15488;48.114;11.532;2023-04-25T05:37:06;1.77;;;1.23;;
15679;SDS011;15488;48.114;11.532;2023-04-25T05:39:34;1.50;;;1.33;;
15679;SDS011;15488;48.114;11.532;2023-04-25T05:42:03;2.57;;;1.33;;
15679;SDS011;15488;48.114;11.532;2023-04-25T05:44:31;2.50;;;1.43;;
15679;SDS011;15488;48.114;11.532;2023-04-25T05:46:58;2.37;;;1.60;;
15679;SDS011;15488;48.114;11.532;2023-04-25T05:49:25;1.90;;;1.50;;
15679;SDS011;15488;48.114;11.532;2023-04-25T05:51:53;2.80;;;1.60;;
15679;SDS011;15488;48.114;11.532;2023-04-25T05:54:20;2.33;;;1.70;;
15679;SDS011;15488;48.114;11.532;2023-04-25T05:56:48;1.80;;;1.40;;
15679;SDS011;15488;48.114;11.532;2023-04-25T05:59:16;3.37;;;1.90;;
15679;SDS011;15488;48.114;11.532;2023-04-25T06:01:44;2.37;;;1.60;;
15679;SDS011;15488;48.114;11.532;2023-04-25T06:04:11;1.70;;;1.33;;
15679;SDS011;15488;48.114;11.532;2023-04-25T06:06:39;1.93;;;1.40;;
15679;SDS011;15488;48.114;11.532;2023-04-25T06:09:06;4.47;;;1.60;;
15679;SDS011;15488;48.114;11.532;2023-04-25T06:11:37;2.17;;;1.47;;
15679;SDS011;15488;48.114;11.532;2023-04-25T06:14:05;1.70;;;1.43;;
15679;SDS011;15488;48.114;11.532;2023-04-25T06:16:34;2.20;;;1.60;;
15679;SDS011;15488;48.114;11.532;2023-04-25T06:19:01;4.57;;;3.50;;
15679;SDS011;15488;48.114;11.532;2023-04-25T06:21:29;3.33;;;2.20;;
15679;SDS011;15488;48.114;11.532;2023-04-25T06:23:56;2.77;;;1.90;;
15679;SDS011;15488;48.114;11.532;2023-04-25T06:26:24;2.23;;;1.60;;
15679;SDS011;15488;48.114;11.532;2023-04-25T06:28:51;1.87;;;1.60;;
15679;SDS011;15488;48.114;11.532;2023-04-25T06:31:18;1.83;;;1.60;;
15679;SDS011;15488;48.114;11.532;2023-04-25T06:33:47;3.80;;;1.70;;
15679;SDS011;15488;48.114;11.532;2023-04-25T06:36:15;4.53;;;1.80;;
15679;SDS011;15488;48.114;11.532;2023-04-25T06:38:42;2.70;;;1.70;;
15679;SDS011;15488;48.114;11.532;2023-04-25T06:41:10;2.10;;;1.70;;
15679;SDS011;15488;48.114;11.532;2023-04-25T06:43:37;1.77;;;1.63;;
15679;SDS011;15488;48.114;11.532;2023-04-25T06:46:05;3.00;;;2.40;;
15679;SDS011;15488;48.114;11.532;2023-04-25T06:48:32;2.50;;;2.30;;
15679;SDS011;15488;48.114;11.532;2023-04-25T06:51:03;3.60;;;1.77;;
15679;SDS011;15488;48.114;11.532;2023-04-25T06:53:30;2.90;;;2.03;;
15679;SDS011;15488;48.114;11.532;2023-04-25T06:55:58;2.23;;;1.77;;
15679;SDS011;15488;48.114;11.532;2023-04-25T06:58:25;2.87;;;1.67;;
15679;SDS011;15488;48.114;11.532;2023-04-25T07:00:53;3.00;;;1.80;;
15679;SDS011;15488;48.114;11.532;2023-04-25T07:03:20;3.07;;;2.30;;
15679;SDS011;15488;48.114;11.532;2023-04-25T07:05:48;2.73;;;1.70;;
15679;SDS011;15488;48.114;11.532;2023-04-25T07:08:17;2.57;;;1.60;;
15679;SDS011;15488;48.114;11.532;2023-04-25T07:10:46;3.03;;;1.77;;
15679;SDS011;15488;48.114;11.532;2023-04-25T07:13:16;2.53;;;2.00;;
15679;SDS011;15488;48.114;11.532;2023-04-25T07:15:44;3.13;;;1.90;;
15679;SDS011;15488;48.114;11.532;2023-04-25T07:18:13;4.23;;;2.07;;
15679;SDS011;15488;48.114;11.532;2023-04-25T07:20:41;2.97;;;1.60;;
15679;SDS011;15488;48.114;11.532;2023-04-25T07:23:08;2.90;;;1.97;;
15679;SDS011;15488;48.114;11.532;2023-04-25T07:25:37;3.17;;;1.60;;
15679;SDS011;15488;48.114;11.532;2023-04-25T07:28:04;2.30;;;1.70;;
15679;SDS011;15488;48.114;11.532;2023-04-25T07:30:32;1.70;;;1.60;;
15679;SDS011;15488;48.114;11.532;2023-04-25T07:33:00;3.00;;;1.70;;
15679;SDS011;15488;48.114;11.532;2023-04-25T07:35:27;4.43;;;1.83;;
15679;SDS011;15488;48.114;11.532;2023-04-25T07:37:54;3.33;;;1.97;;
15679;SDS011;15488;48.114;11.532;2023-04-25T07:40:22;2.20;;;2.00;;
15679;SDS011;15488;48.114;11.532;2023-04-25T07:42:51;4.10;;;2.10;;
15679;SDS011;15488;48.114;11.532;2023-04-25T07:45:18;2.73;;;1.80;;
15679;SDS011;15488;48.114;11.532;2023-04-25T07:47:45;3.37;;;1.87;;
15679;SDS011;15488;48.114;11.532;2023-04-25T07:50:13;2.90;;;2.07;;
15679;SDS011;15488;48.114;11.532;2023-04-25T07:52:40;3.00;;;2.03;;
15679;SDS011;15488;48.114;11.532;2023-04-25T07:55:08;3.90;;;2.63;;
15679;SDS011;15488;48.114;11.532;2023-04-25T07:57:36;3.37;;;2.70;;
15679;SDS011;15488;48.114;11.532;2023-04-25T08:00:05;3.00;;;2.30;;
15679;SDS011;15488;48.114;11.532;2023-04-25T08:02:36;2.70;;;2.20;;
15679;SDS011;15488;48.114;11.532;2023-04-25T08:05:03;4.63;;;2.50;;
15679;SDS011;15488;48.114;11.532;2023-04-25T08:07:33;3.00;;;2.10;;
15679;SDS011;15488;48.114;11.532;2023-04-25T08:10:00;2.80;;;2.00;;
15679;SDS011;15488;48.114;11.532;2023-04-25T08:12:28;2.70;;;2.00;;
15679;SDS011;15488;48.114;11.532;2023-04-25T08:14:55;2.43;;;2.03;;
15679;SDS011;15488;48.114;11.532;2023-04-25T08:17:24;4.50;;;1.90;;
15679;SDS011;15488;48.114;11.532;2023-04-25T08:19:52;3.17;;;2.00;;
15679;SDS011;15488;48.114;11.532;2023-04-25T08:22:20;6.70;;;4.77;;
15679;SDS011;15488;48.114;11.532;2023-04-25T08:24:47;2.60;;;2.40;;
15679;SDS011;15488;48.114;11.532;2023-04-25T08:27:15;3.30;;;2.20;;
15679;SDS011;15488;48.114;11.532;2023-04-25T08:29:43;3.43;;;2.10;;
15679;SDS011;15488;48.114;11.532;2023-04-25T08:32:10;1.90;;;1.67;;
15679;SDS011;15488;48.114;11.532;2023-04-25T08:34:39;2.53;;;1.90;;
15679;SDS011;15488;48.114;11.532;2023-04-25T08:37:07;2.60;;;1.80;;
15679;SDS011;15488;48.114;11.532;2023-04-25T08:39:35;2.10;;;1.77;;
15679;SDS011;15488;48.114;11.532;2023-04-25T08:42:05;1.90;;;1.70;;
15679;SDS011;15488;48.114;11.532;2023-04-25T08:44:33;2.60;;;1.70;;
15679;SDS011;15488;48.114;11.532;2023-04-25T08:47:01;2.27;;;1.70;;
15679;SDS011;15488;48.114;11.532;2023-04-25T08:49:30;3.57;;;1.70;;
15679;SDS011;15488;48.114;11.532;2023-04-25T08:52:00;3.27;;;2.43;;
15679;SDS011;15488;48.114;11.532;2023-04-25T08:54:31;2.10;;;1.80;;
15679;SDS011;15488;48.114;11.532;2023-04-25T08:57:00;1.97;;;1.47;;
15679;SDS011;15488;48.114;11.532;2023-04-25T08:59:29;2.50;;;1.57;;
15679;SDS011;15488;48.114;11.532;2023-04-25T09:01:57;1.33;;;1.20;;
15679;SDS011;15488;48.114;11.532;2023-04-25T09:04:24;2.33;;;1.47;;
15679;SDS011;15488;48.114;11.532;2023-04-25T09:06:52;1.40;;;1.30;;
15679;SDS011;15488;48.114;11.532;2023-04-25T09:09:20;1.60;;;1.37;;
15679;SDS011;15488;48.114;11.532;2023-04-25T09:11:49;1.93;;;1.50;;
15679;SDS011;15488;48.114;11.532;2023-04-25T09:14:16;1.30;;;1.20;;
15679;SDS011;15488;48.114;11.532;2023-04-25T09:16:59;2.10;;;1.40;;
15679;SDS011;15488;48.114;11.532;2023-04-25T09:19:28;2.80;;;1.33;;
15679;SDS011;15488;48.114;11.532;2023-04-25T09:21:56;1.47;;;1.07;;
15679;SDS011;15488;48.114;11.532;2023-04-25T09:24:36;1.33;;;1.23;;
15679;SDS011;15488;48.114;11.532;2023-04-25T09:27:04;2.23;;;1.57;;
15679;SDS011;15488;48.114;11.532;2023-04-25T09:29:33;3.03;;;1.40;;
15679;SDS011;15488;48.114;11.532;2023-04-25T09:32:13;2.00;;;1.20;;
15679;SDS011;15488;48.114;11.532;2023-04-25T09:34:42;1.57;;;1.30;;
15679;SDS011;15488;48.114;11.532;2023-04-25T09:37:13;1.63;;;1.30;;
15679;SDS011;15488;48.114;11.532;2023-04-25T09:39:47;1.77;;;1.30;;
15679;SDS011;15488;48.114;11.532;2023-04-25T09:42:15;2.33;;;1.40;;
15679;SDS011;15488;48.114;11.532;2023-04-25T09:44:43;2.67;;;1.80;;
15679;SDS011;15488;48.114;11.532;2023-04-25T09:47:12;1.23;;;1.13;;
15679;SDS011;15488;48.114;11.532;2023-04-25T09:49:41;1.37;;;1.00;;
15679;SDS011;15488;48.114;11.532;2023-04-25T09:52:13;1.60;;;1.17;;
15679;SDS011;15488;48.114;11.532;2023-04-25T09:54:41;3.03;;;1.33;;
15679;SDS011;15488;48.114;11.532;2023-04-25T09:57:11;2.43;;;1.40;;
15679;SDS011;15488;48.114;11.532;2023-04-25T09:59:43;3.23;;;1.70;;
15679;SDS011;15488;48.114;11.532;2023-04-25T10:02:12;2.07;;;1.30;;
15679;SDS011;15488;48.114;11.532;2023-04-25T10:04:41;2.00;;;1.30;;
15679;SDS011;15488;48.114;11.532;2023-04-25T10:07:10;1.17;;;1.07;;
15679;SDS011;15488;48.114;11.532;2023-04-25T10:09:39;2.30;;;1.47;;
15679;SDS011;15488;48.114;11.532;2023-04-25T10:12:07;1.47;;;1.30;;
15679;SDS011;15488;48.114;11.532;2023-04-25T10:14:36;3.47;;;1.47;;
15679;SDS011;15488;48.114;11.532;2023-04-25T10:17:03;2.00;;;1.30;;
15679;SDS011;15488;48.114;11.532;2023-04-25T10:19:31;1.93;;;1.30;;
15679;SDS011;15488;48.114;11.532;2023-04-25T10:22:04;1.43;;;1.20;;
15679;SDS011;15488;48.114;11.532;2023-04-25T10:24:34;1.77;;;1.33;;
15679;SDS011;15488;48.114;11.532;2023-04-25T10:27:03;2.20;;;1.20;;
15679;SDS011;15488;48.114;11.532;2023-04-25T10:29:31;3.33;;;1.60;;
15679;SDS011;15488;48.114;11.532;2023-04-25T10:32:00;1.67;;;1.50;;
15679;SDS011;15488;48.114;11.532;2023-04-25T10:34:37;1.30;;;1.20;;
15679;SDS011;15488;48.114;11.532;2023-04-25T10:37:08;2.87;;;1.03;;
15679;SDS011;15488;48.114;11.532;2023-04-25T10:39:37;1.73;;;1.20;;
15679;SDS011;15488;48.114;11.532;2023-04-25T10:42:06;1.07;;;0.90;;
15679;SDS011;15488;48.114;11.532;2023-04-25T10:44:34;0.80;;;0.80;;
15679;SDS011;15488;48.114;11.532;2023-04-25T10:47:06;1.63;;;1.03;;
15679;SDS011;15488;48.114;11.532;2023-04-25T10:49:36;1.50;;;1.00;;
15679;SDS011;15488;48.114;11.532;2023-04-25T10:52:10;1.40;;;0.93;;
15679;SDS011;15488;48.114;11.532;2023-04-25T10:54:51;1.43;;;1.17;;
15679;SDS011;15488;48.114;11.532;2023-04-25T10:57:32;1.27;;;1.00;;
15679;SDS011;15488;48.114;11.532;2023-04-25T11:00:08;1.00;;;0.90;;
15679;SDS011;15488;48.114;11.532;2023-04-25T11:02:39;1.33;;;1.00;;
15679;SDS011;15488;48.114;11.532;2023-04-25T11:05:10;1.87;;;1.43;;
15679;SDS011;15488;48.114;11.532;2023-04-25T11:07:44;1.57;;;1.37;;
15679;SDS011;15488;48.114;11.532;2023-04-25T11:10:19;1.87;;;1.30;;
15679;SDS011;15488;48.114;11.532;2023-04-25T11:12:50;1.97;;;1.40;;
15679;SDS011;15488;48.114;11.532;2023-04-25T11:15:18;2.63;;;1.20;;
15679;SDS011;15488;48.114;11.532;2023-04-25T11:17:47;1.93;;;1.20;;
15679;SDS011;15488;48.114;11.532;2023-04-25T11:20:15;1.57;;;0.80;;
15679;SDS011;15488;48.114;11.532;2023-04-25T11:22:44;1.33;;;0.83;;
15679;SDS011;15488;48.114;11.532;2023-04-25T11:25:12;1.57;;;0.90;;
15679;SDS011;15488;48.114;11.532;2023-04-25T11:27:50;2.30;;;1.00;;
15679;SDS011;15488;48.114;11.532;2023-04-25T11:30:19;1.00;;;0.70;;
15679;SDS011;15488;48.114;11.532;2023-04-25T11:32:49;1.43;;;0.70;;
15679;SDS011;15488;48.114;11.532;2023-04-25T11:35:17;0.97;;;0.70;;
15679;SDS011;15488;48.114;11.532;2023-04-25T11:37:45;1.00;;;0.80;;
15679;SDS011;15488;48.114;11.532;2023-04-25T11:40:12;1.37;;;1.03;;
15679;SDS011;15488;48.114;11.532;2023-04-25T11:42:43;1.00;;;0.90;;
15679;SDS011;15488;48.114;11.532;2023-04-25T11:45:12;2.30;;;1.10;;
15679;SDS011;15488;48.114;11.532;2023-04-25T11:47:40;2.33;;;1.30;;
15679;SDS011;15488;48.114;11.532;2023-04-25T11:50:09;1.97;;;1.40;;
15679;SDS011;15488;48.114;11.532;2023-04-25T11:52:37;1.30;;;1.20;;
15679;SDS011;15488;48.114;11.532;2023-04-25T11:55:06;1.53;;;1.10;;
15679;SDS011;15488;48.114;11.532;2023-04-25T11:57:35;1.80;;;1.10;;
15679;SDS011;15488;48.114;11.532;2023-04-25T12:00:08;1.43;;;0.97;;
15679;SDS011;15488;48.114;11.532;2023-04-25T12:02:40;0.83;;;0.83;;
15679;SDS011;15488;48.114;11.532;2023-04-25T12:05:09;1.10;;;0.80;;
15679;SDS011;15488;48.114;11.532;2023-04-25T12:07:38;0.77;;;0.70;;
15679;SDS011;15488;48.114;11.532;2023-04-25T12:10:07;0.67;;;0.67;;
15679;SDS011;15488;48.114;11.532;2023-04-25T12:12:35;1.73;;;0.80;;
15679;SDS011;15488;48.114;11.532;2023-04-25T12:15:10;1.10;;;0.70;;
15679;SDS011;15488;48.114;11.532;2023-04-25T12:17:40;1.13;;;1.00;;
15679;SDS011;15488;48.114;11.532;2023-04-25T12:20:12;1.77;;;1.10;;
15679;SDS011;15488;48.114;11.532;2023-04-25T12:22:41;1.33;;;0.77;;
15679;SDS011;15488;48.114;11.532;2023-04-25T12:25:10;1.50;;;0.57;;
15679;SDS011;15488;48.114;11.532;2023-04-25T12:27:38;1.60;;;1.20;;
15679;SDS011;15488;48.114;11.532;2023-04-25T12:30:07;1.00;;;0.70;;
15679;SDS011;15488;48.114;11.532;2023-04-25T12:32:36;0.80;;;0.73;;
15679;SDS011;15488;48.114;11.532;2023-04-25T12:35:04;1.83;;;0.70;;
15679;SDS011;15488;48.114;11.532;2023-04-25T12:37:34;1.33;;;0.80;;
15679;SDS011;15488;48.114;11.532;2023-04-25T12:40:01;1.53;;;0.70;;
15679;SDS011;15488;48.114;11.532;2023-04-25T12:42:30;1.20;;;1.00;;
15679;SDS011;15488;48.114;11.532;2023-04-25T12:44:57;0.50;;;0.50;;
15679;SDS011;15488;48.114;11.532;2023-04-25T12:47:25;0.60;;;0.53;;
15679;SDS011;15488;48.114;11.532;2023-04-25T12:49:52;0.50;;;0.50;;
15679;SDS011;15488;48.114;11.532;2023-04-25T12:52:19;0.87;;;0.70;;
15679;SDS011;15488;48.114;11.532;2023-04-25T12:54:48;0.87;;;0.80;;
15679;SDS011;15488;48.114;11.532;2023-04-25T12:57:15;1.33;;;0.60;;
15679;SDS011;15488;48.114;11.532;2023-04-25T12:59:43;0.83;;;0.40;;
15679;SDS011;15488;48.114;11.532;2023-04-25T13:02:10;1.17;;;0.80;;
15679;SDS011;15488;48.114;11.532;2023-04-25T13:04:38;1.93;;;1.33;;
15679;SDS011;15488;48.114;11.532;2023-04-25T13:07:05;0.70;;;0.60;;
15679;SDS011;15488;48.114;11.532;2023-04-25T13:09:33;1.37;;;0.57;;
15679;SDS011;15488;48.114;11.532;2023-04-25T13:12:01;0.80;;;0.40;;
15679;SDS011;15488;48.114;11.532;2023-04-25T13:14:29;0.50;;;0.30;;
15679;SDS011;15488;48.114;11.532;2023-04-25T13:16:56;1.03;;;0.50;;
15679;SDS011;15488;48.114;11.532;2023-04-25T13:19:24;0.70;;;0.50;;
15679;SDS011;15488;48.114;11.532;2023-04-25T13:21:51;0.50;;;0.47;;
15679;SDS011;15488;48.114;11.532;2023-04-25T13:24:22;1.03;;;0.80;;
15679;SDS011;15488;48.114;11.532;2023-04-25T13:27:21;0.70;;;0.60;;
15679;SDS011;15488;48.114;11.532;2023-04-25T13:29:48;0.87;;;0.43;;
15679;SDS011;15488;48.114;11.532;2023-04-25T13:32:16;0.60;;;0.47;;
15679;SDS011;15488;48.114;11.532;2023-04-25T13:34:47;1.03;;;0.60;;
15679;SDS011;15488;48.114;11.532;2023-04-25T13:37:15;0.70;;;0.40;;
15679;SDS011;15488;48.114;11.532;2023-04-25T13:39:42;2.03;;;0.70;;
15679;SDS011;15488;48.114;11.532;2023-04-25T13:42:10;0.50;;;0.50;;
15679;SDS011;15488;48.114;11.532;2023-04-25T13:44:38;1.23;;;0.70;;
15679;SDS011;15488;48.114;11.532;2023-04-25T13:47:06;0.60;;;0.60;;
15679;SDS011;15488;48.114;11.532;2023-04-25T13:49:33;0.40;;;0.40;;
15679;SDS011;15488;48.114;11.532;2023-04-25T13:52:01;0.60;;;0.40;;
15679;SDS011;15488;48.114;11.532;2023-04-25T13:54:28;0.50;;;0.50;;
15679;SDS011;15488;48.114;11.532;2023-04-25T13:56:55;0.70;;;0.47;;
15679;SDS011;15488;48.114;11.532;2023-04-25T13:59:24;0.37;;;0.30;;
15679;SDS011;15488;48.114;11.532;2023-04-25T14:01:53;0.20;;;0.20;;
15679;SDS011;15488;48.114;11.532;2023-04-25T14:04:20;0.20;;;0.20;;
15679;SDS011;15488;48.114;11.532;2023-04-25T14:06:47;0.40;;;0.40;;
15679;SDS011;15488;48.114;11.532;2023-04-25T14:09:15;1.23;;;0.93;;
15679;SDS011;15488;48.114;11.532;2023-04-25T14:11:43;0.87;;;0.60;;
15679;SDS011;15488;48.114;11.532;2023-04-25T14:14:10;0.63;;;0.40;;
15679;SDS011;15488;48.114;11.532;2023-04-25T14:16:40;0.83;;;0.40;;
15679;SDS011;15488;48.114;11.532;2023-04-25T14:19:09;0.50;;;0.30;;
15679;SDS011;15488;48.114;11.532;2023-04-25T14:21:37;0.40;;;0.33;;
15679;SDS011;15488;48.114;11.532;2023-04-25T14:24:04;1.27;;;0.70;;
15679;SDS011;15488;48.114;11.532;2023-04-25T14:26:32;0.90;;;0.53;;
15679;SDS011;15488;48.114;11.532;2023-04-25T14:29:01;1.03;;;0.93;;
15679;SDS011;15488;48.114;11.532;2023-04-25T14:31:30;0.93;;;0.80;;
15679;SDS011;15488;48.114;11.532;2023-04-25T14:33:58;0.60;;;0.60;;
15679;SDS011;15488;48.114;11.532;2023-04-25T14:36:27;0.70;;;0.70;;
15679;SDS011;15488;48.114;11.532;2023-04-25T14:38:55;0.77;;;0.70;;
15679;SDS011;15488;48.114;11.532;2023-04-25T14:41:23;0.87;;;0.60;;